Time;durP1;ratioP1;P1;durP2;ratioP2;P2;SDS_P1;SDS_P2;PMS_P1;PMS_P2;Temp;Humidity;BMP_temperature;BMP_pressure;BME280_temperature;BME280_humidity;BME280_pressure;Samples;Min_cycle;Max_cycle;Signal;HPM_P1;HPM_P2
2023/12/23 00:01:58;;;;;;;;;;;;;;;8.91;100.00;100963.81;5106749;28;20332;-43
2023/12/23 00:04:23;;;;;;;;;;;;;;;8.90;100.00;100975.56;5106778;28;19920;-44
2023/12/23 00:06:48;;;;;;;;;;;;;;;8.89;100.00;100976.53;5108164;28;19938;-42
2023/12/23 00:09:15;;;;;;;;;;;;;;;8.90;100.00;100974.69;5104799;28;19932;-42
2023/12/23 00:11:41;;;;;;;;;;;;;;;8.92;100.00;100978.06;5105131;28;20382;-43
2023/12/23 00:14:06;;;;;;;;;;;;;;;8.94;100.00;100981.41;5096111;28;19934;-43
2023/12/23 00:16:31;;;;;;;;;;;;;;;8.96;100.00;100974.03;5105776;28;20010;-43
2023/12/23 00:18:56;;;;;;;;;;;;;;;8.96;100.00;100965.97;5106640;28;20019;-43
2023/12/23 00:21:22;;;;;;;;;;;;;;;8.97;100.00;100965.78;5106788;28;19916;-44
2023/12/23 00:23:47;;;;;;;;;;;;;;;8.98;100.00;100969.34;5107351;28;19926;-43
2023/12/23 00:26:12;;;;;;;;;;;;;;;8.99;100.00;100969.16;5102570;28;19927;-43
2023/12/23 00:28:37;;;;;;;;;;;;;;;9.02;100.00;100957.25;5106451;28;19927;-42
2023/12/23 00:31:03;;;;;;;;;;;;;;;9.06;100.00;100944.31;5105741;28;19920;-43
2023/12/23 00:33:28;;;;;;;;;;;;;;;9.04;100.00;100944.50;5104234;28;19916;-41
2023/12/23 00:35:53;;;;;;;;;;;;;;;9.07;100.00;100946.00;5104223;28;20442;-42
2023/12/23 00:38:18;;;;;;;;;;;;;;;9.12;100.00;100951.72;5104701;28;20392;-44
2023/12/23 00:40:43;;;;;;;;;;;;;;;9.11;100.00;100944.66;5106785;28;20356;-44
2023/12/23 00:43:09;;;;;;;;;;;;;;;9.15;100.00;100943.31;5106465;28;19927;-43
2023/12/23 00:45:34;;;;;;;;;;;;;;;9.15;100.00;100946.81;5106029;28;19922;-43
2023/12/23 00:47:59;;;;;;;;;;;;;;;9.18;100.00;100948.34;5106100;28;19927;-44
2023/12/23 00:50:24;;;;;;;;;;;;;;;9.15;100.00;100930.72;5102323;28;19924;-43
2023/12/23 00:52:50;;;;;;;;;;;;;;;9.16;100.00;100931.56;5107092;28;19924;-44
2023/12/23 00:55:15;;;;;;;;;;;;;;;9.16;100.00;100927.03;5106934;28;19956;-44
2023/12/23 00:57:40;;;;;;;;;;;;;;;9.20;100.00;100930.22;5106148;28;19923;-43
2023/12/23 01:00:06;;;;;;;;;;;;;;;9.21;100.00;100924.66;5104748;28;20388;-43
2023/12/23 01:02:31;;;;;;;;;;;;;;;9.21;100.00;100921.97;5101697;28;19947;-43
2023/12/23 01:04:56;;;;;;;;;;;;;;;9.19;100.00;100920.50;5104814;28;19988;-43
2023/12/23 01:07:22;;;;;;;;;;;;;;;9.19;100.00;100923.19;5104793;28;19919;-44
2023/12/23 01:09:47;;;;;;;;;;;;;;;9.13;100.00;100922.00;5096073;28;20375;-44
2023/12/23 01:12:12;;;;;;;;;;;;;;;9.08;100.00;100918.13;5106823;28;19928;-44
2023/12/23 01:14:37;;;;;;;;;;;;;;;9.07;100.00;100921.84;5106306;28;19935;-44
2023/12/23 01:17:03;;;;;;;;;;;;;;;9.00;100.00;100922.53;5104588;28;19951;-46
2023/12/23 01:19:28;;;;;;;;;;;;;;;8.94;100.00;100917.81;5104959;28;19920;-46
2023/12/23 01:21:53;;;;;;;;;;;;;;;8.87;100.00;100921.34;5103357;28;19954;-44
2023/12/23 01:24:18;;;;;;;;;;;;;;;8.72;100.00;100914.00;5106606;28;20024;-44
2023/12/23 01:26:44;;;;;;;;;;;;;;;8.69;100.00;100924.19;5104133;28;19916;-45
2023/12/23 01:29:09;;;;;;;;;;;;;;;8.67;100.00;100905.59;5100523;28;19930;-46
2023/12/23 01:31:34;;;;;;;;;;;;;;;8.73;100.00;100914.81;5094880;28;19928;-44
2023/12/23 01:33:59;;;;;;;;;;;;;;;8.79;100.00;100922.19;5105699;28;19920;-44
2023/12/23 01:36:25;;;;;;;;;;;;;;;8.84;100.00;100917.16;5105667;28;19969;-43
2023/12/23 01:38:50;;;;;;;;;;;;;;;8.89;100.00;100911.28;5106089;28;20263;-44
2023/12/23 01:41:15;;;;;;;;;;;;;;;8.90;100.00;100912.97;5103596;28;20304;-43
2023/12/23 01:43:40;;;;;;;;;;;;;;;8.91;100.00;100907.44;5102677;28;20440;-44
2023/12/23 01:46:05;;;;;;;;;;;;;;;8.95;100.00;100902.56;5105683;28;20449;-42
2023/12/23 01:48:35;;;;;;;;;;;;;;;9.00;100.00;100889.47;5105719;28;20437;-45
2023/12/23 01:51:00;;;;;;;;;;;;;;;9.04;100.00;100906.91;5096533;28;20297;-43
2023/12/23 01:53:25;;;;;;;;;;;;;;;9.07;100.00;100901.19;5093223;28;19943;-43
2023/12/23 01:55:50;;;;;;;;;;;;;;;9.09;100.00;100887.63;5100275;28;20368;-43
2023/12/23 01:58:16;;;;;;;;;;;;;;;9.07;100.00;100873.53;5106133;28;20630;-43
2023/12/23 02:00:41;;;;;;;;;;;;;;;9.00;100.00;100879.59;5097261;28;19988;-45
2023/12/23 02:03:06;;;;;;;;;;;;;;;8.98;100.00;100881.59;5104709;28;19923;-43
2023/12/23 02:05:31;;;;;;;;;;;;;;;8.95;100.00;100871.19;5105969;28;19959;-41
2023/12/23 02:07:56;;;;;;;;;;;;;;;8.91;100.00;100883.28;5106846;28;19969;-45
2023/12/23 02:10:22;;;;;;;;;;;;;;;8.92;100.00;100881.41;5107731;28;19959;-42
2023/12/23 02:12:53;;;;;;;;;;;;;;;8.94;100.00;100885.63;5106685;28;19919;-43
2023/12/23 02:15:18;;;;;;;;;;;;;;;8.98;100.00;100862.81;5105691;28;20371;-45
2023/12/23 02:17:43;;;;;;;;;;;;;;;9.00;100.00;100868.84;5103838;28;19927;-45
2023/12/23 02:20:09;;;;;;;;;;;;;;;9.05;100.00;100865.63;5105013;28;20374;-44
2023/12/23 02:22:34;;;;;;;;;;;;;;;9.08;100.00;100864.44;5108992;28;20424;-44
2023/12/23 02:24:59;;;;;;;;;;;;;;;9.08;100.00;100864.44;5107485;28;19926;-45
2023/12/23 02:27:29;;;;;;;;;;;;;;;9.13;100.00;100851.34;5107959;28;19980;-44
2023/12/23 02:29:54;;;;;;;;;;;;;;;9.14;100.00;100836.94;5106264;28;19919;-44
2023/12/23 02:32:19;;;;;;;;;;;;;;;9.21;100.00;100829.84;5108292;28;20238;-45
2023/12/23 02:34:45;;;;;;;;;;;;;;;9.20;100.00;100836.22;5088472;28;19979;-44
2023/12/23 02:37:10;;;;;;;;;;;;;;;9.25;100.00;100833.03;5097098;28;19943;-43
2023/12/23 02:39:35;;;;;;;;;;;;;;;9.23;100.00;100819.75;5108363;27;19935;-43
2023/12/23 02:42:00;;;;;;;;;;;;;;;9.27;100.00;100837.22;5108688;28;19920;-44
2023/12/23 02:44:25;;;;;;;;;;;;;;;9.30;100.00;100836.88;5108327;27;19916;-45
2023/12/23 02:46:51;;;;;;;;;;;;;;;9.27;100.00;100815.72;5109283;28;20290;-44
2023/12/23 02:49:16;;;;;;;;;;;;;;;9.28;100.00;100832.69;5106970;28;20396;-45
2023/12/23 02:51:41;;;;;;;;;;;;;;;9.29;100.00;100818.22;5109092;28;20309;-44
2023/12/23 02:54:06;;;;;;;;;;;;;;;9.30;100.00;100827.97;5108528;28;20502;-46
2023/12/23 02:56:32;;;;;;;;;;;;;;;9.31;100.00;100826.94;5105843;28;19923;-44
2023/12/23 02:58:57;;;;;;;;;;;;;;;9.29;100.00;100840.53;5102276;27;19923;-46
2023/12/23 03:01:22;;;;;;;;;;;;;;;9.32;100.00;100816.06;5108168;28;19963;-45
2023/12/23 03:03:48;;;;;;;;;;;;;;;9.34;100.00;100800.56;5108416;28;19919;-44
2023/12/23 03:06:14;;;;;;;;;;;;;;;9.30;100.00;100801.94;5104193;27;19924;-44
2023/12/23 03:08:39;;;;;;;;;;;;;;;9.30;100.00;100815.38;5108982;28;20334;-43
2023/12/23 03:11:04;;;;;;;;;;;;;;;9.36;100.00;100813.84;5107972;28;19970;-42
2023/12/23 03:13:29;;;;;;;;;;;;;;;9.35;100.00;100815.69;5107026;28;19920;-44
2023/12/23 03:15:55;;;;;;;;;;;;;;;9.33;100.00;100815.03;5097229;28;19916;-44
2023/12/23 03:18:20;;;;;;;;;;;;;;;9.32;100.00;100813.38;5108262;28;19973;-44
2023/12/23 03:20:45;;;;;;;;;;;;;;;9.34;100.00;100813.16;5109029;28;19920;-43
2023/12/23 03:23:10;;;;;;;;;;;;;;;9.35;100.00;100812.19;5105356;28;20453;-42
2023/12/23 03:25:36;;;;;;;;;;;;;;;9.31;100.00;100808.97;5105027;28;19959;-43
2023/12/23 03:28:01;;;;;;;;;;;;;;;9.29;100.00;100802.13;5106129;28;19962;-44
2023/12/23 03:30:26;;;;;;;;;;;;;;;9.29;100.00;100808.31;5107740;28;19965;-45
2023/12/23 03:32:51;;;;;;;;;;;;;;;9.26;100.00;100786.34;5108321;28;19941;-44
2023/12/23 03:35:17;;;;;;;;;;;;;;;9.31;100.00;100798.25;5108266;28;19928;-43
2023/12/23 03:37:42;;;;;;;;;;;;;;;9.30;100.00;100801.94;5103986;28;20026;-44
2023/12/23 03:40:08;;;;;;;;;;;;;;;9.30;100.00;100791.22;5108106;28;19935;-44
2023/12/23 03:42:33;;;;;;;;;;;;;;;9.30;100.00;100799.25;5108697;28;19916;-43
2023/12/23 03:44:59;;;;;;;;;;;;;;;9.29;100.00;100791.38;5108586;28;19926;-44
2023/12/23 03:47:24;;;;;;;;;;;;;;;9.29;100.00;100791.38;5111392;28;19930;-43
2023/12/23 03:49:49;;;;;;;;;;;;;;;9.27;100.00;100772.75;5108265;28;19920;-43
2023/12/23 03:52:14;;;;;;;;;;;;;;;9.28;100.00;100778.97;5111594;28;20881;-43
2023/12/23 03:54:39;;;;;;;;;;;;;;;9.28;100.00;100763.69;5108582;28;19958;-43
2023/12/23 03:57:05;;;;;;;;;;;;;;;9.25;100.00;100772.09;5102833;28;19924;-43
2023/12/23 03:59:30;;;;;;;;;;;;;;;9.24;100.00;100778.47;5107356;28;19943;-43
2023/12/23 04:01:55;;;;;;;;;;;;;;;9.28;100.00;100763.69;5107794;28;20381;-45
2023/12/23 04:04:20;;;;;;;;;;;;;;;9.28;100.00;100777.09;5107548;28;20374;-43
2023/12/23 04:06:46;;;;;;;;;;;;;;;9.26;100.00;100763.00;5104246;28;20354;-45
2023/12/23 04:09:11;;;;;;;;;;;;;;;9.25;100.00;100766.72;5107620;28;19945;-44
2023/12/23 04:11:36;;;;;;;;;;;;;;;9.28;100.00;100762.84;5107793;28;20011;-42
2023/12/23 04:14:01;;;;;;;;;;;;;;;9.29;100.00;100754.59;5103528;28;20293;-42
2023/12/23 04:16:27;;;;;;;;;;;;;;;9.31;100.00;100757.97;5106474;28;19964;-43
2023/12/23 04:18:53;;;;;;;;;;;;;;;9.27;100.00;100740.53;5107770;28;19927;-43
2023/12/23 04:21:19;;;;;;;;;;;;;;;9.30;100.00;100750.09;5103656;28;19919;-45
2023/12/23 04:23:44;;;;;;;;;;;;;;;9.31;100.00;100755.28;5099886;28;19973;-44
2023/12/23 04:26:10;;;;;;;;;;;;;;;9.25;100.00;100741.72;5105661;28;20196;-44
2023/12/23 04:28:35;;;;;;;;;;;;;;;9.26;100.00;100738.84;5106464;28;20360;-46
2023/12/23 04:31:01;;;;;;;;;;;;;;;9.24;100.00;100743.53;5106863;28;19919;-43
2023/12/23 04:33:26;;;;;;;;;;;;;;;9.27;100.00;100745.91;5106372;28;20289;-44
2023/12/23 04:35:51;;;;;;;;;;;;;;;9.28;100.00;100747.56;5103989;28;19919;-44
2023/12/23 04:38:17;;;;;;;;;;;;;;;9.31;100.00;100743.69;5101486;28;19939;-45
2023/12/23 04:40:42;;;;;;;;;;;;;;;9.29;100.00;100740.34;5102308;28;19942;-43
2023/12/23 04:43:07;;;;;;;;;;;;;;;9.30;100.00;100748.25;5099154;28;19932;-42
2023/12/23 04:45:32;;;;;;;;;;;;;;;9.33;100.00;100747.88;5098687;28;19927;-44
2023/12/23 04:47:57;;;;;;;;;;;;;;;9.35;100.00;100737.81;5102120;28;19924;-43
2023/12/23 04:50:23;;;;;;;;;;;;;;;9.37;100.00;100749.22;5104285;28;19923;-44
2023/12/23 04:52:48;;;;;;;;;;;;;;;9.40;100.00;100739.94;5102733;28;19919;-43
2023/12/23 04:55:14;;;;;;;;;;;;;;;9.40;100.00;100748.84;5104322;28;19924;-44
2023/12/23 04:57:39;;;;;;;;;;;;;;;9.40;100.00;100748.00;5100179;28;19934;-43
2023/12/23 05:00:05;;;;;;;;;;;;;;;9.42;100.00;100738.75;5102797;28;19927;-44
2023/12/23 05:02:31;;;;;;;;;;;;;;;9.37;100.00;100741.16;5101115;28;19935;-43
2023/12/23 05:04:57;;;;;;;;;;;;;;;9.37;100.00;100716.97;5104831;28;19919;-46
2023/12/23 05:07:23;;;;;;;;;;;;;;;9.37;100.00;100727.72;5101396;28;19930;-45
2023/12/23 05:09:48;;;;;;;;;;;;;;;9.38;100.00;100736.63;5101540;28;20343;-43
2023/12/23 05:12:13;;;;;;;;;;;;;;;9.41;100.00;100742.47;5104501;28;20305;-42
2023/12/23 05:14:39;;;;;;;;;;;;;;;9.38;100.00;100740.13;5102018;28;19950;-45
2023/12/23 05:17:04;;;;;;;;;;;;;;;9.40;100.00;100719.31;5087944;28;20451;-44
2023/12/23 05:19:29;;;;;;;;;;;;;;;9.37;100.00;100727.72;5103982;28;19924;-44
2023/12/23 05:21:54;;;;;;;;;;;;;;;9.39;100.00;100741.78;5104210;28;19945;-43
2023/12/23 05:24:20;;;;;;;;;;;;;;;9.36;100.00;100742.16;5104278;28;19924;-43
2023/12/23 05:26:45;;;;;;;;;;;;;;;9.38;100.00;100737.44;5098954;28;19931;-43
2023/12/23 05:29:10;;;;;;;;;;;;;;;9.36;100.00;100747.53;5100149;28;19932;-44
2023/12/23 05:31:35;;;;;;;;;;;;;;;9.34;100.00;100741.47;5101098;28;19928;-46
2023/12/23 05:34:00;;;;;;;;;;;;;;;9.37;100.00;100735.78;5100270;28;19927;-44
2023/12/23 05:36:26;;;;;;;;;;;;;;;9.36;100.00;100728.72;5099170;28;20018;-46
2023/12/23 05:38:51;;;;;;;;;;;;;;;9.36;100.00;100742.16;5088929;28;19981;-43
2023/12/23 05:41:16;;;;;;;;;;;;;;;9.38;100.00;100723.19;5102739;28;20303;-43
2023/12/23 05:43:41;;;;;;;;;;;;;;;9.36;100.00;100717.97;5104539;28;19935;-44
2023/12/23 05:46:07;;;;;;;;;;;;;;;9.37;100.00;100724.19;5101112;28;19927;-44
2023/12/23 05:48:32;;;;;;;;;;;;;;;9.39;100.00;100728.38;5105731;28;20352;-45
2023/12/23 05:50:57;;;;;;;;;;;;;;;9.42;100.00;100722.63;5104403;28;19920;-44
2023/12/23 05:53:23;;;;;;;;;;;;;;;9.44;100.00;100723.28;5101723;28;20309;-44
2023/12/23 05:55:48;;;;;;;;;;;;;;;9.42;100.00;100700.31;5105845;28;20379;-46
2023/12/23 05:58:13;;;;;;;;;;;;;;;9.44;100.00;100725.97;5100104;28;19928;-43
2023/12/23 06:00:38;;;;;;;;;;;;;;;9.40;100.00;100724.69;5107503;28;19934;-44
2023/12/23 06:03:03;;;;;;;;;;;;;;;9.40;100.00;100724.69;5107652;28;19921;-44
2023/12/23 06:05:29;;;;;;;;;;;;;;;9.38;100.00;100732.06;5107984;28;19923;-43
2023/12/23 06:07:55;;;;;;;;;;;;;;;9.41;100.00;100733.56;5095983;28;20003;-46
2023/12/23 06:10:20;;;;;;;;;;;;;;;9.44;100.00;100743.97;5104471;28;19924;-44
2023/12/23 06:12:46;;;;;;;;;;;;;;;9.41;100.00;100725.50;5106467;28;19923;-44
2023/12/23 06:15:11;;;;;;;;;;;;;;;9.43;100.00;100723.50;5105674;28;19928;-43
2023/12/23 06:17:36;;;;;;;;;;;;;;;9.42;100.00;100728.00;5106714;28;19931;-45
2023/12/23 06:20:04;;;;;;;;;;;;;;;9.42;100.00;100719.94;5107082;28;19919;-45
2023/12/23 06:22:29;;;;;;;;;;;;;;;9.38;100.00;100725.88;5107429;28;19924;-43
2023/12/23 06:24:54;;;;;;;;;;;;;;;9.37;100.00;100748.34;5106973;28;20369;-44
2023/12/23 06:27:19;;;;;;;;;;;;;;;9.41;100.00;100726.34;5108156;28;19919;-45
2023/12/23 06:29:45;;;;;;;;;;;;;;;9.44;100.00;100720.59;5110027;28;19924;-45
2023/12/23 06:32:10;;;;;;;;;;;;;;;9.43;100.00;100723.50;5108456;28;20015;-44
2023/12/23 06:34:35;;;;;;;;;;;;;;;9.43;100.00;100739.59;5108615;28;19936;-43
2023/12/23 06:37:00;;;;;;;;;;;;;;;9.46;100.00;100723.13;5105409;28;19940;-44
2023/12/23 06:39:25;;;;;;;;;;;;;;;9.44;100.00;100715.25;5106744;28;19935;-45
2023/12/23 06:41:51;;;;;;;;;;;;;;;9.43;100.00;100718.13;5105787;28;19923;-46
2023/12/23 06:44:16;;;;;;;;;;;;;;;9.38;100.00;100713.28;5097387;28;19995;-44
2023/12/23 06:46:42;;;;;;;;;;;;;;;9.37;100.00;100708.94;5106963;28;19924;-45
2023/12/23 06:49:07;;;;;;;;;;;;;;;9.42;100.00;100700.31;5105391;28;19951;-47
2023/12/23 06:51:32;;;;;;;;;;;;;;;9.39;100.00;100706.03;5106783;28;19965;-45
2023/12/23 06:53:57;;;;;;;;;;;;;;;9.40;100.00;100708.56;5106089;28;19923;-44
2023/12/23 06:56:23;;;;;;;;;;;;;;;9.39;100.00;100706.88;5105522;28;19916;-45
2023/12/23 06:58:48;;;;;;;;;;;;;;;9.40;100.00;100716.63;5105097;28;19966;-43
2023/12/23 07:01:13;;;;;;;;;;;;;;;9.42;100.00;100701.13;5100999;28;19928;-45
2023/12/23 07:03:39;;;;;;;;;;;;;;;9.45;100.00;100703.50;5103969;28;20042;-44
2023/12/23 07:06:05;;;;;;;;;;;;;;;9.45;100.00;100706.19;5100310;28;20424;-45
2023/12/23 07:08:30;;;;;;;;;;;;;;;9.44;100.00;100704.50;5104906;28;19920;-44
2023/12/23 07:10:55;;;;;;;;;;;;;;;9.48;100.00;100725.63;5102946;28;19924;-45
2023/12/23 07:13:20;;;;;;;;;;;;;;;9.50;100.00;100707.47;5106030;28;19942;-45
2023/12/23 07:15:46;;;;;;;;;;;;;;;9.53;100.00;100707.13;5106133;28;20433;-44
2023/12/23 07:18:11;;;;;;;;;;;;;;;9.53;100.00;100709.81;5105291;28;20478;-43
2023/12/23 07:20:39;;;;;;;;;;;;;;;9.56;100.00;100679.94;5105451;28;19920;-44
2023/12/23 07:23:04;;;;;;;;;;;;;;;9.58;100.00;100705.56;5100395;28;19943;-43
2023/12/23 07:25:29;;;;;;;;;;;;;;;9.57;100.00;100700.38;5103629;28;20377;-43
2023/12/23 07:27:55;;;;;;;;;;;;;;;9.59;100.00;100714.50;5104699;28;19931;-43
2023/12/23 07:30:20;;;;;;;;;;;;;;;9.54;100.00;100703.44;5103624;28;19931;-43
2023/12/23 07:32:45;;;;;;;;;;;;;;;9.56;100.00;100693.34;5104446;28;19962;-45
2023/12/23 07:35:10;;;;;;;;;;;;;;;9.56;100.00;100709.47;5105406;28;19939;-44
2023/12/23 07:37:36;;;;;;;;;;;;;;;9.55;100.00;100692.50;5104587;28;19932;-44
2023/12/23 07:40:04;;;;;;;;;;;;;;;9.59;100.00;100698.38;5104987;28;20346;-46
2023/12/23 07:42:29;;;;;;;;;;;;;;;9.57;100.00;100703.06;5108167;27;19928;-44
2023/12/23 07:44:55;;;;;;;;;;;;;;;9.55;100.00;100715.84;5107314;27;20414;-44
2023/12/23 07:47:20;;;;;;;;;;;;;;;9.53;100.00;100717.88;5104425;28;20410;-43
2023/12/23 07:49:45;;;;;;;;;;;;;;;9.58;100.00;100726.22;5108444;28;20348;-44
2023/12/23 07:52:10;;;;;;;;;;;;;;;9.58;100.00;100721.69;5108314;28;19927;-44
2023/12/23 07:54:36;;;;;;;;;;;;;;;9.56;100.00;100720.22;5107251;28;19974;-42
2023/12/23 07:57:01;;;;;;;;;;;;;;;9.56;100.00;100736.34;5106748;28;19922;-45
2023/12/23 07:59:26;;;;;;;;;;;;;;;9.58;100.00;100723.53;5106555;27;19928;-45
2023/12/23 08:01:51;;;;;;;;;;;;;;;9.57;100.00;100713.81;5107624;28;19920;-43
2023/12/23 08:04:17;;;;;;;;;;;;;;;9.58;100.00;100727.06;5106725;27;19974;-43
2023/12/23 08:06:42;;;;;;;;;;;;;;;9.61;100.00;100725.88;5105717;28;20004;-46
2023/12/23 08:09:07;;;;;;;;;;;;;;;9.64;100.00;100726.38;5105496;28;19927;-44
2023/12/23 08:11:34;;;;;;;;;;;;;;;9.67;100.00;100736.75;5107003;28;19927;-44
2023/12/23 08:14:00;;;;;;;;;;;;;;;9.66;100.00;100728.84;5104742;28;19936;-45
2023/12/23 08:16:25;;;;;;;;;;;;;;;9.63;100.00;100723.84;5105331;28;19916;-44
2023/12/23 08:18:50;;;;;;;;;;;;;;;9.56;100.00;100739.88;5105865;28;19926;-44
2023/12/23 08:21:15;;;;;;;;;;;;;;;9.53;100.00;100742.91;5107161;28;19919;-42
2023/12/23 08:23:40;;;;;;;;;;;;;;;9.45;100.00;100735.72;5106330;28;19928;-44
2023/12/23 08:26:07;;;;;;;;;;;;;;;9.45;100.00;100727.69;5102083;28;20313;-47
2023/12/23 08:28:32;;;;;;;;;;;;;;;9.45;100.00;100722.31;5106793;28;19919;-44
2023/12/23 08:30:58;;;;;;;;;;;;;;;9.44;100.00;100736.72;5105646;28;19920;-45
2023/12/23 08:33:23;;;;;;;;;;;;;;;9.48;100.00;100739.06;5106910;28;19926;-44
2023/12/23 08:35:48;;;;;;;;;;;;;;;9.51;100.00;100746.78;5107127;28;20450;-44
2023/12/23 08:38:14;;;;;;;;;;;;;;;9.54;100.00;100743.75;5103222;28;20386;-45
2023/12/23 08:40:39;;;;;;;;;;;;;;;9.58;100.00;100729.75;5107095;27;20049;-44
2023/12/23 08:43:05;;;;;;;;;;;;;;;9.63;100.00;100731.91;5103870;28;19990;-45
2023/12/23 08:45:30;;;;;;;;;;;;;;;9.58;100.00;100724.38;5100377;28;20042;-44
2023/12/23 08:47:55;;;;;;;;;;;;;;;9.63;100.00;100739.97;5105428;28;19915;-45
2023/12/23 08:50:22;;;;;;;;;;;;;;;9.66;100.00;100750.34;5106989;28;19919;-43
2023/12/23 08:52:47;;;;;;;;;;;;;;;9.67;100.00;100760.09;5106722;28;19927;-45
2023/12/23 08:55:13;;;;;;;;;;;;;;;9.68;100.00;100756.41;5105469;28;19935;-44
2023/12/23 08:57:38;;;;;;;;;;;;;;;9.66;100.00;100753.91;5106242;28;19978;-43
2023/12/23 09:00:05;;;;;;;;;;;;;;;9.70;100.00;100746.31;5097869;28;19928;-45
2023/12/23 09:02:30;;;;;;;;;;;;;;;9.71;100.00;100756.03;5104725;28;19919;-43
2023/12/23 09:04:55;;;;;;;;;;;;;;;9.72;100.00;100749.66;5106553;28;20339;-44
2023/12/23 09:07:20;;;;;;;;;;;;;;;9.72;100.00;100760.41;5106770;28;20362;-44
2023/12/23 09:09:45;;;;;;;;;;;;;;;9.76;100.00;100766.25;5107952;28;20313;-44
2023/12/23 09:12:11;;;;;;;;;;;;;;;9.77;100.00;100741.03;5104467;28;19923;-45
2023/12/23 09:14:36;;;;;;;;;;;;;;;9.76;100.00;100767.09;5106847;28;19992;-45
2023/12/23 09:17:01;;;;;;;;;;;;;;;9.81;100.00;100770.09;5107357;28;20339;-44
2023/12/23 09:19:26;;;;;;;;;;;;;;;9.83;100.00;100740.34;5105118;28;19915;-44
2023/12/23 09:21:52;;;;;;;;;;;;;;;9.91;100.00;100769.03;5099627;28;19930;-45
2023/12/23 09:24:17;;;;;;;;;;;;;;;9.86;100.00;100761.47;5104906;28;19927;-44
2023/12/23 09:26:43;;;;;;;;;;;;;;;9.88;100.00;100776.41;5105809;28;19963;-44
2023/12/23 09:29:08;;;;;;;;;;;;;;;9.93;100.00;100785.81;5107595;28;20027;-45
2023/12/23 09:31:34;;;;;;;;;;;;;;;9.94;100.00;100779.41;5109418;28;19916;-44
2023/12/23 09:33:59;;;;;;;;;;;;;;;9.99;100.00;100777.03;5109573;28;19922;-44
2023/12/23 09:36:24;;;;;;;;;;;;;;;10.07;100.00;100780.47;5111471;27;19924;-45
2023/12/23 09:38:50;;;;;;;;;;;;;;;10.15;100.00;100778.75;5106892;28;19943;-44
2023/12/23 09:41:15;;;;;;;;;;;;;;;10.18;100.00;100781.91;5103989;28;19953;-44
2023/12/23 09:43:40;;;;;;;;;;;;;;;10.16;100.00;100783.94;5098689;28;20042;-43
2023/12/23 09:46:05;;;;;;;;;;;;;;;10.21;100.00;100797.66;5106115;28;20316;-43
2023/12/23 09:48:31;;;;;;;;;;;;;;;10.18;100.00;100794.50;5107360;28;20398;-45
2023/12/23 09:50:56;;;;;;;;;;;;;;;10.17;100.00;100788.31;5107570;28;20393;-45
2023/12/23 09:53:22;;;;;;;;;;;;;;;10.18;100.00;100802.59;5110465;28;19922;-43
2023/12/23 09:55:47;;;;;;;;;;;;;;;10.20;100.00;100789.78;5110340;28;20270;-44
2023/12/23 09:58:13;;;;;;;;;;;;;;;10.24;100.00;100791.09;5108877;28;19976;-43
2023/12/23 10:00:38;;;;;;;;;;;;;;;10.29;100.00;100794.97;5110468;28;19928;-44
2023/12/23 10:03:03;;;;;;;;;;;;;;;10.41;100.00;100781.91;5098310;28;19920;-44
2023/12/23 10:05:29;;;;;;;;;;;;;;;10.49;100.00;100783.69;5107651;28;19969;-43
2023/12/23 10:07:57;;;;;;;;;;;;;;;10.60;100.00;100788.63;5107377;28;19922;-44
2023/12/23 10:10:23;;;;;;;;;;;;;;;10.71;100.00;100782.78;5106432;28;20034;-45
2023/12/23 10:12:49;;;;;;;;;;;;;;;10.79;100.00;100778.31;5110077;28;20394;-42
2023/12/23 10:15:14;;;;;;;;;;;;;;;10.82;100.00;100780.66;5107897;28;19966;-44
2023/12/23 10:17:39;;;;;;;;;;;;;;;10.84;100.00;100779.44;5109150;28;19919;-44
2023/12/23 10:20:05;;;;;;;;;;;;;;;10.95;100.00;100778.13;5107025;28;19931;-45
2023/12/23 10:22:30;;;;;;;;;;;;;;;10.92;100.00;100767.75;5108993;28;20020;-45
2023/12/23 10:24:56;;;;;;;;;;;;;;;10.95;100.00;100784.38;5104308;28;19958;-44
2023/12/23 10:27:21;;;;;;;;;;;;;;;10.97;100.00;100786.88;5108774;28;19955;-45
2023/12/23 10:29:48;;;;;;;;;;;;;;;10.99;100.00;100779.44;5108754;28;19928;-46
2023/12/23 10:32:13;;;;;;;;;;;;;;;11.07;100.00;100773.97;5109190;28;19928;-44
2023/12/23 10:34:48;;;;;;;;;;;;;;;11.19;100.00;100763.56;5092884;28;19924;-44
2023/12/23 10:37:13;;;;;;;;;;;;;;;11.29;100.00;100764.09;5109827;28;19992;-46
2023/12/23 10:40:05;;;;;;;;;;;;;;;11.24;100.00;100771.06;5104371;28;20460;-45
2023/12/23 10:42:30;;;;;;;;;;;;;;;11.29;100.00;100772.16;5106415;28;19943;-46
2023/12/23 10:44:56;;;;;;;;;;;;;;;11.29;100.00;100768.66;5108168;28;20404;-45
2023/12/23 10:47:21;;;;;;;;;;;;;;;11.09;100.00;100747.69;5104429;28;20382;-45
2023/12/23 10:49:48;;;;;;;;;;;;;;;11.08;100.00;100767.53;5107985;28;20374;-45
2023/12/23 10:52:13;;;;;;;;;;;;;;;11.02;100.00;100768.31;5104213;28;19924;-44
2023/12/23 10:54:38;;;;;;;;;;;;;;;11.05;100.00;100765.22;5106813;28;20010;-47
2023/12/23 10:57:04;;;;;;;;;;;;;;;10.89;100.00;100763.56;5108020;28;20379;-46
2023/12/23 10:59:29;;;;;;;;;;;;;;;10.95;100.00;100761.97;5108482;28;20034;-44
2023/12/23 11:01:55;;;;;;;;;;;;;;;10.88;100.00;100767.28;5108959;28;19938;-45
2023/12/23 11:04:20;;;;;;;;;;;;;;;10.85;100.00;100756.91;5099080;28;20210;-44
2023/12/23 11:06:45;;;;;;;;;;;;;;;10.86;100.00;100765.81;5095709;28;19915;-44
2023/12/23 11:09:10;;;;;;;;;;;;;;;10.86;100.00;100768.50;5091013;28;19930;-45
2023/12/23 11:11:36;;;;;;;;;;;;;;;10.80;100.00;100769.25;5106008;28;19928;-45
2023/12/23 11:14:04;;;;;;;;;;;;;;;10.72;100.00;100776.38;5095905;28;19967;-46
2023/12/23 11:16:29;;;;;;;;;;;;;;;10.73;100.00;100751.13;5108173;28;19939;-45
2023/12/23 11:18:54;;;;;;;;;;;;;;;10.71;100.00;100772.00;5108741;28;20374;-45
2023/12/23 11:21:20;;;;;;;;;;;;;;;10.74;100.00;100770.81;5107500;28;20010;-42
2023/12/23 11:23:46;;;;;;;;;;;;;;;10.83;100.00;100774.25;5105168;28;19951;-44
2023/12/23 11:26:30;;;;;;;;;;;;;;;10.86;100.00;100780.09;5106735;28;20019;-43
2023/12/23 11:28:55;;;;;;;;;;;;;;;10.75;100.00;100773.31;5104662;28;20429;-43
2023/12/23 11:31:20;;;;;;;;;;;;;;;10.80;100.00;100772.78;5105085;28;20125;-44
2023/12/23 11:33:46;;;;;;;;;;;;;;;10.81;100.00;100758.28;5103563;28;19947;-45
2023/12/23 11:36:11;;;;;;;;;;;;;;;10.79;100.00;100772.94;5085848;28;19931;-44
2023/12/23 11:38:47;;;;;;;;;;;;;;;10.66;100.00;100763.66;5095000;28;19928;-43
2023/12/23 11:41:12;;;;;;;;;;;;;;;10.57;100.00;100775.53;5090964;28;20048;-45
2023/12/23 11:43:38;;;;;;;;;;;;;;;10.57;100.00;100783.59;5106390;28;19963;-47
2023/12/23 11:46:03;;;;;;;;;;;;;;;10.52;100.00;100797.59;5092506;28;20324;-44
2023/12/23 11:48:28;;;;;;;;;;;;;;;10.49;100.00;100794.44;5107646;28;19916;-45
2023/12/23 11:50:54;;;;;;;;;;;;;;;10.46;100.00;100794.81;5105954;28;19975;-44
2023/12/23 11:53:19;;;;;;;;;;;;;;;10.47;100.00;100791.09;5104391;28;19984;-44
2023/12/23 11:55:44;;;;;;;;;;;;;;;10.51;100.00;100797.81;5090823;28;19965;-44
2023/12/23 11:58:10;;;;;;;;;;;;;;;10.50;100.00;100785.34;5105034;28;20027;-44
2023/12/23 12:00:37;;;;;;;;;;;;;;;10.46;100.00;100782.19;5104872;28;19930;-44
2023/12/23 12:03:04;;;;;;;;;;;;;;;10.45;100.00;100775.16;5105980;28;20223;-44
2023/12/23 12:05:29;;;;;;;;;;;;;;;10.47;100.00;100761.50;5104610;28;20374;-46
2023/12/23 12:07:54;;;;;;;;;;;;;;;10.47;100.00;100765.03;5105340;28;19926;-46
2023/12/23 12:10:19;;;;;;;;;;;;;;;10.50;100.00;100769.19;5096801;28;19976;-43
2023/12/23 12:12:45;;;;;;;;;;;;;;;10.49;100.00;100768.38;5098487;28;20059;-44
2023/12/23 12:15:10;;;;;;;;;;;;;;;10.53;100.00;100774.22;5098256;28;19935;-46
2023/12/23 12:17:35;;;;;;;;;;;;;;;10.55;100.00;100766.78;5105319;28;19931;-45
2023/12/23 12:20:00;;;;;;;;;;;;;;;10.56;100.00;100768.50;5105593;28;19920;-47
2023/12/23 12:22:26;;;;;;;;;;;;;;;10.55;100.00;100761.41;5106110;28;19982;-43
2023/12/23 12:24:51;;;;;;;;;;;;;;;10.64;100.00;100779.16;5099483;28;19920;-46
2023/12/23 12:27:16;;;;;;;;;;;;;;;10.71;100.00;100777.38;5106305;28;19939;-43